sensor_id;sensor_type;location;lat;lon;timestamp;pressure;altitude;pressure_sealevel;temperature;humidity
68712;BME280;55690;51.566;19.198;2023-05-01T00:01:04;102252.36;;;7.64;70.55
68712;BME280;55690;51.566;19.198;2023-05-01T00:05:10;102252.06;;;7.72;70.56
68712;BME280;55690;51.566;19.198;2023-05-01T00:09:16;102258.20;;;7.52;71.10
68712;BME280;55690;51.566;19.198;2023-05-01T00:13:23;102266.76;;;7.40;71.91
68712;BME280;55690;51.566;19.198;2023-05-01T00:17:29;102265.47;;;7.26;72.09
68712;BME280;55690;51.566;19.198;2023-05-01T00:21:35;102277.91;;;7.06;72.72
68712;BME280;55690;51.566;19.198;2023-05-01T00:25:41;102274.38;;;7.04;72.55
68712;BME280;55690;51.566;19.198;2023-05-01T00:29:47;102276.80;;;6.86;73.21
68712;BME280;55690;51.566;19.198;2023-05-01T00:33:54;102282.55;;;6.76;73.57
68712;BME280;55690;51.566;19.198;2023-05-01T00:38:00;102265.89;;;6.89;72.07
68712;BME280;55690;51.566;19.198;2023-05-01T00:42:06;102253.61;;;6.53;72.93
68712;BME280;55690;51.566;19.198;2023-05-01T00:46:12;102269.05;;;6.49;73.32
68712;BME280;55690;51.566;19.198;2023-05-01T00:50:18;102273.44;;;6.52;74.24
68712;BME280;55690;51.566;19.198;2023-05-01T00:54:25;102271.11;;;6.41;74.49
68712;BME280;55690;51.566;19.198;2023-05-01T00:58:31;102274.06;;;6.60;73.80
68712;BME280;55690;51.566;19.198;2023-05-01T01:02:37;102275.15;;;6.54;74.08
68712;BME280;55690;51.566;19.198;2023-05-01T01:11:27;102263.47;;;6.54;73.62
68712;BME280;55690;51.566;19.198;2023-05-01T01:32:16;102260.34;;;6.12;75.63
68712;BME280;55690;51.566;19.198;2023-05-01T01:36:30;102257.41;;;6.19;74.95
68712;BME280;55690;51.566;19.198;2023-05-01T01:40:36;102261.09;;;6.17;75.45
68712;BME280;55690;51.566;19.198;2023-05-01T01:48:52;102248.77;;;6.08;75.62
68712;BME280;55690;51.566;19.198;2023-05-01T01:52:57;102245.32;;;6.05;75.88
68712;BME280;55690;51.566;19.198;2023-05-01T01:57:02;102248.39;;;6.20;75.07
68712;BME280;55690;51.566;19.198;2023-05-01T02:01:05;102240.25;;;6.22;75.31
68712;BME280;55690;51.566;19.198;2023-05-01T02:05:10;102232.95;;;6.25;74.44
68712;BME280;55690;51.566;19.198;2023-05-01T02:09:16;102232.02;;;6.26;74.00
68712;BME280;55690;51.566;19.198;2023-05-01T02:13:20;102232.72;;;6.05;75.42
68712;BME280;55690;51.566;19.198;2023-05-01T02:17:24;102230.02;;;6.05;75.10
68712;BME280;55690;51.566;19.198;2023-05-01T02:21:28;102228.39;;;5.99;75.12
68712;BME280;55690;51.566;19.198;2023-05-01T02:25:33;102225.30;;;5.82;75.58
68712;BME280;55690;51.566;19.198;2023-05-01T02:29:39;102229.56;;;5.91;75.10
68712;BME280;55690;51.566;19.198;2023-05-01T02:33:41;102227.05;;;5.83;76.07
68712;BME280;55690;51.566;19.198;2023-05-01T02:37:43;102233.28;;;5.85;75.96
68712;BME280;55690;51.566;19.198;2023-05-01T02:41:45;102225.88;;;5.93;75.39
68712;BME280;55690;51.566;19.198;2023-05-01T02:45:50;102231.88;;;5.72;76.02
68712;BME280;55690;51.566;19.198;2023-05-01T02:49:53;102231.93;;;5.71;76.13
68712;BME280;55690;51.566;19.198;2023-05-01T02:53:57;102233.79;;;5.68;75.94
68712;BME280;55690;51.566;19.198;2023-05-01T02:57:59;102234.09;;;5.59;76.24
68712;BME280;55690;51.566;19.198;2023-05-01T03:02:02;102235.02;;;5.58;76.47
68712;BME280;55690;51.566;19.198;2023-05-01T03:06:04;102228.97;;;5.50;76.90
68712;BME280;55690;51.566;19.198;2023-05-01T03:10:06;102228.31;;;5.72;75.81
68712;BME280;55690;51.566;19.198;2023-05-01T03:14:08;102221.41;;;5.63;75.63
68712;BME280;55690;51.566;19.198;2023-05-01T03:18:11;102227.47;;;5.69;75.84
68712;BME280;55690;51.566;19.198;2023-05-01T03:22:12;102226.67;;;5.97;74.58
68712;BME280;55690;51.566;19.198;2023-05-01T03:26:14;102234.22;;;5.84;75.46
68712;BME280;55690;51.566;19.198;2023-05-01T03:30:20;102235.23;;;6.10;73.99
68712;BME280;55690;51.566;19.198;2023-05-01T03:34:26;102229.06;;;5.77;75.02
68712;BME280;55690;51.566;19.198;2023-05-01T03:38:32;102226.02;;;5.89;74.85
68712;BME280;55690;51.566;19.198;2023-05-01T03:42:38;102233.66;;;5.73;75.25
68712;BME280;55690;51.566;19.198;2023-05-01T03:46:44;102230.77;;;5.79;75.93
68712;BME280;55690;51.566;19.198;2023-05-01T03:50:51;102232.25;;;5.91;75.67
68712;BME280;55690;51.566;19.198;2023-05-01T03:54:57;102225.94;;;5.92;75.40
68712;BME280;55690;51.566;19.198;2023-05-01T03:59:03;102225.14;;;6.16;74.66
68712;BME280;55690;51.566;19.198;2023-05-01T04:03:09;102220.69;;;5.86;76.20
68712;BME280;55690;51.566;19.198;2023-05-01T04:07:15;102225.23;;;6.13;75.50
68712;BME280;55690;51.566;19.198;2023-05-01T04:11:21;102230.73;;;6.10;75.83
68712;BME280;55690;51.566;19.198;2023-05-01T04:15:28;102222.89;;;6.30;75.70
68712;BME280;55690;51.566;19.198;2023-05-01T04:19:34;102219.16;;;6.34;76.05
68712;BME280;55690;51.566;19.198;2023-05-01T04:23:40;102219.10;;;6.62;75.47
68712;BME280;55690;51.566;19.198;2023-05-01T04:27:46;102219.36;;;6.81;75.12
68712;BME280;55690;51.566;19.198;2023-05-01T04:31:52;102215.22;;;6.96;75.80
68712;BME280;55690;51.566;19.198;2023-05-01T04:35:59;102220.35;;;7.04;76.56
68712;BME280;55690;51.566;19.198;2023-05-01T04:40:06;102224.11;;;7.24;76.35
68712;BME280;55690;51.566;19.198;2023-05-01T04:44:11;102222.13;;;7.29;76.45
68712;BME280;55690;51.566;19.198;2023-05-01T04:48:17;102221.55;;;7.68;75.25
68712;BME280;55690;51.566;19.198;2023-05-01T04:52:23;102214.87;;;8.00;76.42
68712;BME280;55690;51.566;19.198;2023-05-01T04:56:30;102217.68;;;8.42;76.00
68712;BME280;55690;51.566;19.198;2023-05-01T05:00:36;102221.85;;;8.51;75.59
68712;BME280;55690;51.566;19.198;2023-05-01T05:04:42;102215.37;;;8.75;75.86
68712;BME280;55690;51.566;19.198;2023-05-01T05:08:48;102213.91;;;8.88;75.27
68712;BME280;55690;51.566;19.198;2023-05-01T05:12:54;102213.88;;;9.29;74.54
68712;BME280;55690;51.566;19.198;2023-05-01T05:17:00;102202.96;;;9.51;74.31
68712;BME280;55690;51.566;19.198;2023-05-01T05:21:07;102210.00;;;9.74;74.68
68712;BME280;55690;51.566;19.198;2023-05-01T05:25:13;102204.66;;;10.28;73.97
68712;BME280;55690;51.566;19.198;2023-05-01T05:29:19;102203.70;;;10.83;72.90
68712;BME280;55690;51.566;19.198;2023-05-01T05:33:25;102199.84;;;11.04;71.91
68712;BME280;55690;51.566;19.198;2023-05-01T05:37:31;102193.27;;;11.58;71.33
68712;BME280;55690;51.566;19.198;2023-05-01T05:41:37;102186.78;;;11.61;69.88
68712;BME280;55690;51.566;19.198;2023-05-01T05:45:44;102181.12;;;12.28;68.86
68712;BME280;55690;51.566;19.198;2023-05-01T05:49:50;102184.98;;;12.70;68.53
68712;BME280;55690;51.566;19.198;2023-05-01T05:53:56;102185.15;;;12.37;66.83
68712;BME280;55690;51.566;19.198;2023-05-01T05:58:02;102174.37;;;12.95;66.83
68712;BME280;55690;51.566;19.198;2023-05-01T06:02:08;102178.92;;;13.53;64.85
68712;BME280;55690;51.566;19.198;2023-05-01T06:06:15;102172.10;;;14.57;63.78
68712;BME280;55690;51.566;19.198;2023-05-01T06:10:21;102163.66;;;15.25;62.89
68712;BME280;55690;51.566;19.198;2023-05-01T06:14:27;102158.95;;;15.27;60.91
68712;BME280;55690;51.566;19.198;2023-05-01T06:18:33;102167.81;;;16.18;59.99
68712;BME280;55690;51.566;19.198;2023-05-01T06:22:39;102158.77;;;16.52;59.18
68712;BME280;55690;51.566;19.198;2023-05-01T06:26:45;102169.86;;;16.27;58.54
68712;BME280;55690;51.566;19.198;2023-05-01T06:30:52;102160.56;;;17.46;57.03
68712;BME280;55690;51.566;19.198;2023-05-01T06:34:58;102156.20;;;17.32;55.32
68712;BME280;55690;51.566;19.198;2023-05-01T06:39:04;102156.95;;;17.56;55.97
68712;BME280;55690;51.566;19.198;2023-05-01T06:43:10;102162.20;;;17.59;55.10
68712;BME280;55690;51.566;19.198;2023-05-01T06:47:16;102159.44;;;17.48;54.42
68712;BME280;55690;51.566;19.198;2023-05-01T06:51:22;102158.95;;;17.99;55.05
68712;BME280;55690;51.566;19.198;2023-05-01T06:55:29;102161.37;;;18.36;53.71
68712;BME280;55690;51.566;19.198;2023-05-01T06:59:35;102149.88;;;19.36;53.48
68712;BME280;55690;51.566;19.198;2023-05-01T07:03:41;102157.23;;;19.05;51.64
68712;BME280;55690;51.566;19.198;2023-05-01T07:07:47;102142.16;;;19.30;52.18
68712;BME280;55690;51.566;19.198;2023-05-01T07:11:53;102143.98;;;19.71;51.42
68712;BME280;55690;51.566;19.198;2023-05-01T07:15:59;102137.53;;;20.61;51.56
68712;BME280;55690;51.566;19.198;2023-05-01T07:20:07;102140.59;;;20.67;50.60
68712;BME280;55690;51.566;19.198;2023-05-01T07:24:12;102135.91;;;20.97;50.14
68712;BME280;55690;51.566;19.198;2023-05-01T07:28:18;102147.70;;;20.50;50.29
68712;BME280;55690;51.566;19.198;2023-05-01T07:32:24;102138.23;;;21.01;49.08
68712;BME280;55690;51.566;19.198;2023-05-01T07:36:30;102139.39;;;20.99;48.17
68712;BME280;55690;51.566;19.198;2023-05-01T07:40:37;102140.70;;;21.04;47.54
68712;BME280;55690;51.566;19.198;2023-05-01T07:44:43;102139.54;;;20.87;47.25
68712;BME280;55690;51.566;19.198;2023-05-01T07:48:49;102130.88;;;21.48;47.31
68712;BME280;55690;51.566;19.198;2023-05-01T07:52:55;102134.23;;;21.42;48.60
68712;BME280;55690;51.566;19.198;2023-05-01T07:57:01;102145.30;;;20.26;46.92
68712;BME280;55690;51.566;19.198;2023-05-01T08:01:07;102130.95;;;20.33;47.00
68712;BME280;55690;51.566;19.198;2023-05-01T08:05:13;102131.38;;;21.15;47.10
68712;BME280;55690;51.566;19.198;2023-05-01T08:09:20;102136.63;;;21.08;48.83
68712;BME280;55690;51.566;19.198;2023-05-01T08:13:26;102130.81;;;21.02;46.78
68712;BME280;55690;51.566;19.198;2023-05-01T08:17:34;102132.00;;;20.51;47.12
68712;BME280;55690;51.566;19.198;2023-05-01T08:21:38;102133.60;;;20.53;46.32
68712;BME280;55690;51.566;19.198;2023-05-01T08:25:44;102125.88;;;20.96;46.59
68712;BME280;55690;51.566;19.198;2023-05-01T08:29:50;102123.45;;;21.49;46.20
68712;BME280;55690;51.566;19.198;2023-05-01T08:33:57;102116.66;;;21.34;47.82
68712;BME280;55690;51.566;19.198;2023-05-01T08:38:03;102112.77;;;22.18;45.93
68712;BME280;55690;51.566;19.198;2023-05-01T08:42:09;102111.34;;;21.87;46.70
68712;BME280;55690;51.566;19.198;2023-05-01T08:50:28;102116.98;;;21.95;45.47
68712;BME280;55690;51.566;19.198;2023-05-01T08:54:32;102116.98;;;22.58;45.36
68712;BME280;55690;51.566;19.198;2023-05-01T08:58:35;102110.72;;;22.20;45.19
68712;BME280;55690;51.566;19.198;2023-05-01T09:02:41;102107.81;;;22.75;45.88
68712;BME280;55690;51.566;19.198;2023-05-01T09:06:46;102101.80;;;22.27;44.58
68712;BME280;55690;51.566;19.198;2023-05-01T09:10:53;102105.60;;;21.34;43.71
68712;BME280;55690;51.566;19.198;2023-05-01T09:14:58;102095.95;;;22.30;43.92
68712;BME280;55690;51.566;19.198;2023-05-01T09:19:04;102096.38;;;21.80;43.22
68712;BME280;55690;51.566;19.198;2023-05-01T09:23:11;102100.63;;;22.47;44.49
68712;BME280;55690;51.566;19.198;2023-05-01T09:27:17;102092.16;;;22.84;44.48
68712;BME280;55690;51.566;19.198;2023-05-01T09:31:25;102094.23;;;21.74;43.27
68712;BME280;55690;51.566;19.198;2023-05-01T09:40:02;102083.48;;;23.57;44.57
68712;BME280;55690;51.566;19.198;2023-05-01T09:44:04;102078.47;;;21.84;43.99
68712;BME280;55690;51.566;19.198;2023-05-01T09:48:10;102078.81;;;22.44;45.18
68712;BME280;55690;51.566;19.198;2023-05-01T09:52:11;102078.94;;;22.60;44.16
68712;BME280;55690;51.566;19.198;2023-05-01T09:56:14;102069.15;;;22.83;44.31
68712;BME280;55690;51.566;19.198;2023-05-01T10:00:17;102072.23;;;22.80;43.44
68712;BME280;55690;51.566;19.198;2023-05-01T10:04:31;102067.73;;;22.79;42.62
68712;BME280;55690;51.566;19.198;2023-05-01T10:08:57;102058.67;;;22.95;42.66
68712;BME280;55690;51.566;19.198;2023-05-01T10:12:49;102059.25;;;22.81;42.66
68712;BME280;55690;51.566;19.198;2023-05-01T10:16:52;102058.91;;;23.36;43.99
68712;BME280;55690;51.566;19.198;2023-05-01T10:20:53;102047.45;;;23.05;43.99
68712;BME280;55690;51.566;19.198;2023-05-01T10:24:55;102045.60;;;22.08;44.23
68712;BME280;55690;51.566;19.198;2023-05-01T10:29:00;102038.92;;;22.98;44.97
68712;BME280;55690;51.566;19.198;2023-05-01T10:33:06;102034.16;;;22.82;44.74
68712;BME280;55690;51.566;19.198;2023-05-01T10:37:21;102029.49;;;22.65;43.79
68712;BME280;55690;51.566;19.198;2023-05-01T10:45:38;102024.70;;;22.32;43.87
68712;BME280;55690;51.566;19.198;2023-05-01T10:58:06;101998.92;;;23.61;42.50
68712;BME280;55690;51.566;19.198;2023-05-01T11:02:20;102001.53;;;23.28;42.55
68712;BME280;55690;51.566;19.198;2023-05-01T11:06:19;101991.98;;;22.88;42.07
68712;BME280;55690;51.566;19.198;2023-05-01T11:10:25;102001.21;;;22.00;42.15
68712;BME280;55690;51.566;19.198;2023-05-01T11:14:27;101998.77;;;22.50;41.17
68712;BME280;55690;51.566;19.198;2023-05-01T11:18:44;101988.09;;;23.49;43.04
68712;BME280;55690;51.566;19.198;2023-05-01T11:22:44;101982.16;;;23.02;41.97
68712;BME280;55690;51.566;19.198;2023-05-01T11:26:47;101983.63;;;22.01;41.45
68712;BME280;55690;51.566;19.198;2023-05-01T11:30:49;101969.21;;;22.33;41.53
68712;BME280;55690;51.566;19.198;2023-05-01T11:34:52;101962.43;;;22.53;41.91
68712;BME280;55690;51.566;19.198;2023-05-01T11:38:55;101959.24;;;22.66;42.32
68712;BME280;55690;51.566;19.198;2023-05-01T11:43:03;101970.30;;;21.87;40.97
68712;BME280;55690;51.566;19.198;2023-05-01T11:47:05;101955.13;;;23.30;42.65
68712;BME280;55690;51.566;19.198;2023-05-01T11:51:12;101954.41;;;22.68;40.60
68712;BME280;55690;51.566;19.198;2023-05-01T11:55:15;101935.73;;;22.70;41.86
68712;BME280;55690;51.566;19.198;2023-05-01T11:59:16;101927.23;;;22.89;41.84
68712;BME280;55690;51.566;19.198;2023-05-01T12:03:21;101922.62;;;23.06;42.23
68712;BME280;55690;51.566;19.198;2023-05-01T12:07:27;101918.66;;;22.49;41.33
68712;BME280;55690;51.566;19.198;2023-05-01T12:11:34;101912.98;;;23.18;42.52
68712;BME280;55690;51.566;19.198;2023-05-01T12:15:42;101908.65;;;23.74;42.85
68712;BME280;55690;51.566;19.198;2023-05-01T12:19:46;101893.06;;;23.81;40.80
68712;BME280;55690;51.566;19.198;2023-05-01T12:23:52;101891.30;;;23.64;41.41
68712;BME280;55690;51.566;19.198;2023-05-01T12:27:58;101890.64;;;23.20;40.67
68712;BME280;55690;51.566;19.198;2023-05-01T12:32:04;101889.05;;;22.23;40.04
68712;BME280;55690;51.566;19.198;2023-05-01T12:36:11;101875.07;;;22.51;40.45
68712;BME280;55690;51.566;19.198;2023-05-01T12:40:16;101869.23;;;22.96;40.80
68712;BME280;55690;51.566;19.198;2023-05-01T12:44:27;101860.00;;;23.21;41.07
68712;BME280;55690;51.566;19.198;2023-05-01T12:48:31;101867.86;;;22.66;40.54
68712;BME280;55690;51.566;19.198;2023-05-01T12:52:35;101850.51;;;23.48;40.51
68712;BME280;55690;51.566;19.198;2023-05-01T12:56:41;101851.95;;;23.61;40.98
68712;BME280;55690;51.566;19.198;2023-05-01T13:00:51;101835.44;;;23.35;41.00
68712;BME280;55690;51.566;19.198;2023-05-01T13:09:08;101839.30;;;23.00;40.25
68712;BME280;55690;51.566;19.198;2023-05-01T13:13:10;101821.55;;;23.43;40.41
68712;BME280;55690;51.566;19.198;2023-05-01T13:21:26;101811.07;;;23.79;39.82
68712;BME280;55690;51.566;19.198;2023-05-01T13:25:27;101814.18;;;23.68;41.39
68712;BME280;55690;51.566;19.198;2023-05-01T13:29:31;101809.66;;;23.59;41.23
68712;BME280;55690;51.566;19.198;2023-05-01T13:33:38;101802.22;;;23.75;40.80
68712;BME280;55690;51.566;19.198;2023-05-01T13:37:43;101799.79;;;23.56;41.53
68712;BME280;55690;51.566;19.198;2023-05-01T13:41:50;101794.72;;;24.08;41.09
68712;BME280;55690;51.566;19.198;2023-05-01T13:45:56;101783.90;;;22.92;39.95
68712;BME280;55690;51.566;19.198;2023-05-01T13:50:01;101783.45;;;23.45;41.16
68712;BME280;55690;51.566;19.198;2023-05-01T13:54:08;101773.52;;;23.02;39.26
68712;BME280;55690;51.566;19.198;2023-05-01T13:58:13;101770.87;;;22.42;40.33
68712;BME280;55690;51.566;19.198;2023-05-01T14:02:26;101774.63;;;23.33;40.19
68712;BME280;55690;51.566;19.198;2023-05-01T14:06:28;101769.79;;;22.77;40.47
68712;BME280;55690;51.566;19.198;2023-05-01T14:10:32;101761.57;;;22.51;40.50
68712;BME280;55690;51.566;19.198;2023-05-01T14:14:46;101759.30;;;22.46;40.81
68712;BME280;55690;51.566;19.198;2023-05-01T14:18:48;101740.20;;;22.77;41.68
68712;BME280;55690;51.566;19.198;2023-05-01T14:22:54;101733.86;;;22.43;40.02
68712;BME280;55690;51.566;19.198;2023-05-01T14:26:57;101736.30;;;22.54;41.89
68712;BME280;55690;51.566;19.198;2023-05-01T14:31:03;101707.97;;;22.68;40.99
68712;BME280;55690;51.566;19.198;2023-05-01T14:35:09;101732.41;;;22.31;40.10
68712;BME280;55690;51.566;19.198;2023-05-01T14:39:16;101744.41;;;22.13;40.99
68712;BME280;55690;51.566;19.198;2023-05-01T14:43:21;101730.65;;;21.96;40.19
68712;BME280;55690;51.566;19.198;2023-05-01T14:47:28;101734.00;;;21.81;40.54
68712;BME280;55690;51.566;19.198;2023-05-01T14:51:34;101699.98;;;22.07;40.73
68712;BME280;55690;51.566;19.198;2023-05-01T14:55:40;101718.51;;;21.63;40.77
68712;BME280;55690;51.566;19.198;2023-05-01T14:59:46;101710.70;;;21.58;39.71
68712;BME280;55690;51.566;19.198;2023-05-01T15:03:52;101711.33;;;21.78;40.60
68712;BME280;55690;51.566;19.198;2023-05-01T15:07:58;101707.25;;;22.16;41.31
68712;BME280;55690;51.566;19.198;2023-05-01T15:12:06;101716.38;;;21.82;41.10
68712;BME280;55690;51.566;19.198;2023-05-01T15:16:11;101706.38;;;22.07;41.04
68712;BME280;55690;51.566;19.198;2023-05-01T15:20:17;101700.99;;;21.80;40.79
68712;BME280;55690;51.566;19.198;2023-05-01T15:24:23;101699.65;;;21.58;40.26
68712;BME280;55690;51.566;19.198;2023-05-01T15:28:30;101690.20;;;21.43;40.22
68712;BME280;55690;51.566;19.198;2023-05-01T15:32:36;101687.45;;;21.25;40.32
68712;BME280;55690;51.566;19.198;2023-05-01T15:36:42;101686.17;;;21.37;41.28
68712;BME280;55690;51.566;19.198;2023-05-01T15:40:48;101682.70;;;21.35;40.68
68712;BME280;55690;51.566;19.198;2023-05-01T15:44:54;101683.52;;;20.74;40.53
68712;BME280;55690;51.566;19.198;2023-05-01T15:49:00;101683.51;;;21.10;41.35
68712;BME280;55690;51.566;19.198;2023-05-01T15:53:06;101679.48;;;20.86;40.89
68712;BME280;55690;51.566;19.198;2023-05-01T15:57:13;101683.45;;;20.39;41.16
68712;BME280;55690;51.566;19.198;2023-05-01T16:01:19;101665.60;;;20.61;41.17
68712;BME280;55690;51.566;19.198;2023-05-01T16:05:25;101673.20;;;20.76;41.56
68712;BME280;55690;51.566;19.198;2023-05-01T16:09:31;101672.66;;;20.18;40.87
68712;BME280;55690;51.566;19.198;2023-05-01T16:13:38;101667.67;;;20.76;41.54
68712;BME280;55690;51.566;19.198;2023-05-01T16:17:44;101662.05;;;20.86;41.48
68712;BME280;55690;51.566;19.198;2023-05-01T17:59:49;101636.05;;;18.85;45.24
68712;BME280;55690;51.566;19.198;2023-05-01T18:07:48;101624.98;;;18.37;45.58
68712;BME280;55690;51.566;19.198;2023-05-01T18:11:54;101627.98;;;18.24;46.09
68712;BME280;55690;51.566;19.198;2023-05-01T18:16:00;101622.20;;;17.78;46.29
68712;BME280;55690;51.566;19.198;2023-05-01T18:20:07;101623.39;;;17.54;46.84
68712;BME280;55690;51.566;19.198;2023-05-01T18:24:12;101633.33;;;17.76;47.20
68712;BME280;55690;51.566;19.198;2023-05-01T18:28:19;101628.55;;;17.69;47.88
68712;BME280;55690;51.566;19.198;2023-05-01T18:35:56;101632.95;;;17.29;47.16
68712;BME280;55690;51.566;19.198;2023-05-01T18:40:02;101631.68;;;17.64;47.57
68712;BME280;55690;51.566;19.198;2023-05-01T18:44:08;101634.64;;;17.51;47.08
68712;BME280;55690;51.566;19.198;2023-05-01T18:48:14;101634.64;;;17.51;47.50
68712;BME280;55690;51.566;19.198;2023-05-01T18:52:20;101638.94;;;17.44;48.23
68712;BME280;55690;51.566;19.198;2023-05-01T18:56:27;101634.81;;;17.08;47.92
68712;BME280;55690;51.566;19.198;2023-05-01T19:00:33;101634.81;;;17.08;48.45
68712;BME280;55690;51.566;19.198;2023-05-01T19:04:39;101638.14;;;16.91;49.63
68712;BME280;55690;51.566;19.198;2023-05-01T19:08:45;101639.96;;;17.02;49.02
68712;BME280;55690;51.566;19.198;2023-05-01T19:12:51;101642.51;;;16.61;50.05
68712;BME280;55690;51.566;19.198;2023-05-01T19:16:57;101638.17;;;16.48;49.55
68712;BME280;55690;51.566;19.198;2023-05-01T19:21:04;101639.75;;;16.73;49.76
68712;BME280;55690;51.566;19.198;2023-05-01T19:25:10;101639.98;;;16.38;49.49
68712;BME280;55690;51.566;19.198;2023-05-01T19:29:16;101652.20;;;16.34;49.63
68712;BME280;55690;51.566;19.198;2023-05-01T19:33:22;101650.14;;;16.47;49.61
68712;BME280;55690;51.566;19.198;2023-05-01T19:37:28;101652.59;;;16.61;50.29
68712;BME280;55690;51.566;19.198;2023-05-01T19:41:34;101659.95;;;16.17;50.43
68712;BME280;55690;51.566;19.198;2023-05-01T19:45:41;101651.77;;;15.95;50.50
68712;BME280;55690;51.566;19.198;2023-05-01T19:49:47;101649.77;;;15.63;50.91
68712;BME280;55690;51.566;19.198;2023-05-01T19:53:53;101650.03;;;15.83;51.13
68712;BME280;55690;51.566;19.198;2023-05-01T19:57:59;101642.20;;;15.89;50.94
68712;BME280;55690;51.566;19.198;2023-05-01T20:02:06;101644.44;;;15.84;51.36
68712;BME280;55690;51.566;19.198;2023-05-01T20:06:12;101627.50;;;15.79;51.58
68712;BME280;55690;51.566;19.198;2023-05-01T20:10:18;101627.38;;;15.70;51.80
68712;BME280;55690;51.566;19.198;2023-05-01T20:14:24;101637.21;;;15.83;51.86
68712;BME280;55690;51.566;19.198;2023-05-01T20:18:30;101637.09;;;15.85;52.85
68712;BME280;55690;51.566;19.198;2023-05-01T20:22:36;101629.49;;;15.77;52.91
68712;BME280;55690;51.566;19.198;2023-05-01T20:26:42;101624.27;;;15.63;52.95
68712;BME280;55690;51.566;19.198;2023-05-01T20:30:48;101620.66;;;15.62;53.07
68712;BME280;55690;51.566;19.198;2023-05-01T20:34:55;101626.08;;;15.29;53.36
68712;BME280;55690;51.566;19.198;2023-05-01T20:39:01;101630.42;;;15.20;53.54
68712;BME280;55690;51.566;19.198;2023-05-01T20:43:07;101630.53;;;15.19;53.56
68712;BME280;55690;51.566;19.198;2023-05-01T20:47:13;101635.70;;;14.88;54.85
68712;BME280;55690;51.566;19.198;2023-05-01T20:51:19;101628.48;;;14.87;54.19
68712;BME280;55690;51.566;19.198;2023-05-01T20:55:25;101630.39;;;14.98;54.11
68712;BME280;55690;51.566;19.198;2023-05-01T20:59:32;101633.00;;;15.00;54.42
68712;BME280;55690;51.566;19.198;2023-05-01T21:03:38;101627.56;;;15.11;54.52
68712;BME280;55690;51.566;19.198;2023-05-01T21:07:44;101629.03;;;15.04;54.55
68712;BME280;55690;51.566;19.198;2023-05-01T21:11:50;101631.85;;;14.91;54.77
68712;BME280;55690;51.566;19.198;2023-05-01T21:15:56;101626.91;;;14.96;54.83
68712;BME280;55690;51.566;19.198;2023-05-01T21:20:11;101627.55;;;15.22;54.48
68712;BME280;55690;51.566;19.198;2023-05-01T21:24:20;101633.77;;;15.24;54.83
68712;BME280;55690;51.566;19.198;2023-05-01T21:28:22;101621.09;;;15.23;54.66
68712;BME280;55690;51.566;19.198;2023-05-01T21:32:29;101630.78;;;15.05;55.07
68712;BME280;55690;51.566;19.198;2023-05-01T21:36:41;101626.05;;;15.18;54.93
68712;BME280;55690;51.566;19.198;2023-05-01T21:40:44;101633.66;;;15.25;55.07
68712;BME280;55690;51.566;19.198;2023-05-01T21:44:46;101629.67;;;15.18;55.08
68712;BME280;55690;51.566;19.198;2023-05-01T21:48:50;101621.46;;;15.07;55.35
68712;BME280;55690;51.566;19.198;2023-05-01T21:52:52;101629.06;;;15.15;55.16
68712;BME280;55690;51.566;19.198;2023-05-01T21:56:59;101630.93;;;15.14;55.38
68712;BME280;55690;51.566;19.198;2023-05-01T22:01:05;101623.59;;;15.26;55.37
68712;BME280;55690;51.566;19.198;2023-05-01T22:05:13;101622.84;;;15.13;55.46
68712;BME280;55690;51.566;19.198;2023-05-01T22:09:17;101627.80;;;15.19;55.59
68712;BME280;55690;51.566;19.198;2023-05-01T22:13:23;101628.55;;;15.21;55.51
68712;BME280;55690;51.566;19.198;2023-05-01T22:17:29;101628.00;;;14.93;56.88
68712;BME280;55690;51.566;19.198;2023-05-01T22:21:35;101625.63;;;14.89;56.94
68712;BME280;55690;51.566;19.198;2023-05-01T22:25:41;101613.38;;;15.06;56.35
68712;BME280;55690;51.566;19.198;2023-05-01T22:29:47;101618.06;;;14.92;56.72
68712;BME280;55690;51.566;19.198;2023-05-01T22:33:54;101613.51;;;15.26;56.29
68712;BME280;55690;51.566;19.198;2023-05-01T22:38:00;101615.38;;;15.26;56.21
68712;BME280;55690;51.566;19.198;2023-05-01T22:42:06;101618.74;;;15.29;56.30
68712;BME280;55690;51.566;19.198;2023-05-01T22:46:12;101613.66;;;15.14;56.71
68712;BME280;55690;51.566;19.198;2023-05-01T22:50:18;101618.13;;;15.15;57.01
68712;BME280;55690;51.566;19.198;2023-05-01T22:54:24;101617.62;;;15.10;57.13
68712;BME280;55690;51.566;19.198;2023-05-01T22:58:31;101615.98;;;15.07;57.25
68712;BME280;55690;51.566;19.198;2023-05-01T23:02:37;101613.61;;;15.03;57.41
68712;BME280;55690;51.566;19.198;2023-05-01T23:06:43;101611.56;;;14.82;57.83
68712;BME280;55690;51.566;19.198;2023-05-01T23:10:49;101607.66;;;15.20;58.13
68712;BME280;55690;51.566;19.198;2023-05-01T23:14:55;101604.62;;;14.89;58.11
68712;BME280;55690;51.566;19.198;2023-05-01T23:19:02;101604.34;;;14.70;58.33
68712;BME280;55690;51.566;19.198;2023-05-01T23:23:12;101608.34;;;14.88;58.36
68712;BME280;55690;51.566;19.198;2023-05-01T23:27:18;101600.44;;;15.19;58.30
68712;BME280;55690;51.566;19.198;2023-05-01T23:31:23;101592.48;;;15.05;58.06
68712;BME280;55690;51.566;19.198;2023-05-01T23:35:29;101590.66;;;14.70;58.97
68712;BME280;55690;51.566;19.198;2023-05-01T23:39:32;101591.67;;;14.45;59.61
68712;BME280;55690;51.566;19.198;2023-05-01T23:43:39;101585.20;;;14.81;59.18
68712;BME280;55690;51.566;19.198;2023-05-01T23:47:45;101587.54;;;14.63;60.45
68712;BME280;55690;51.566;19.198;2023-05-01T23:51:51;101584.28;;;14.58;59.92